Time;durP1;ratioP1;P1;durP2;ratioP2;P2;SDS_P1;SDS_P2;PMS_P1;PMS_P2;Temp;Humidity;BMP_temperature;BMP_pressure;BME280_temperature;BME280_humidity;BME280_pressure;Samples;Min_cycle;Max_cycle;Signal;HPM_P1;HPM_P2
2023/11/29 00:01:52;;;;;;;20.73;11.20;;;1.70;99.90;;;1.72;74.80;99396.63;4991557;28;20062;-83
2023/11/29 00:04:20;;;;;;;19.58;11.02;;;1.80;99.90;;;1.81;74.59;99395.53;4993476;28;20034;-82
2023/11/29 00:06:47;;;;;;;21.13;10.90;;;1.80;99.90;;;1.86;74.02;99395.00;5028204;28;20050;-82
2023/11/29 00:09:16;;;;;;;19.50;9.93;;;1.90;99.90;;;1.83;73.28;99392.72;5028389;28;20076;-83
2023/11/29 00:11:44;;;;;;;20.67;11.32;;;1.90;99.90;;;1.68;73.42;99388.25;5010353;28;20050;-83
2023/11/29 00:14:12;;;;;;;18.20;10.48;;;1.80;99.90;;;1.74;73.04;99389.34;5028399;28;20038;-83
2023/11/29 00:16:39;;;;;;;21.25;10.82;;;1.80;99.90;;;1.77;73.33;99389.81;5009712;28;20049;-82
2023/11/29 00:19:07;;;;;;;22.95;10.98;;;1.90;99.90;;;1.75;72.63;99383.09;5009674;28;20408;-81
2023/11/29 00:21:42;;;;;;;22.63;11.45;;;1.90;99.90;;;1.84;73.17;99383.81;5009502;28;20057;-82
2023/11/29 00:24:09;;;;;;;18.77;10.77;;;1.90;99.90;;;1.67;73.14;99373.50;5010084;28;20050;-82
2023/11/29 00:26:38;;;;;;;18.65;11.18;;;1.90;99.90;;;1.62;73.22;99370.59;5027985;28;20065;-83
2023/11/29 00:29:06;;;;;;;20.30;10.93;;;1.80;99.90;;;1.51;73.15;99374.50;4994396;28;20119;-83
2023/11/29 00:31:34;;;;;;;18.83;11.10;;;1.80;99.90;;;1.54;72.65;99362.78;5011434;28;20081;-83
2023/11/29 00:34:02;;;;;;;20.75;10.63;;;1.70;99.90;;;1.57;72.65;99361.63;5009107;28;20140;-83
2023/11/29 00:36:30;;;;;;;17.17;9.73;;;1.80;99.90;;;1.61;72.48;99357.63;4994755;28;20084;-83
2023/11/29 00:38:57;;;;;;;24.67;10.75;;;1.80;99.90;;;1.67;72.58;99359.56;5027555;28;20054;-82
2023/11/29 00:41:28;;;;;;;19.17;10.13;;;1.90;99.90;;;1.61;72.66;99358.47;5027223;28;20030;-82
2023/11/29 00:43:57;;;;;;;19.70;10.35;;;1.80;99.90;;;1.53;72.77;99346.22;5010107;28;20046;-83
2023/11/29 00:46:24;;;;;;;18.88;10.02;;;1.80;99.90;;;1.72;72.76;99339.59;5010913;28;20052;-83
2023/11/29 00:48:52;;;;;;;20.60;10.00;;;1.80;99.90;;;1.71;72.52;99337.16;5027308;28;20069;-82
2023/11/29 00:51:19;;;;;;;20.67;10.73;;;1.90;99.90;;;1.64;71.95;99331.81;4994810;28;20109;-83
2023/11/29 00:53:47;;;;;;;17.70;10.13;;;1.80;99.90;;;1.65;72.11;99335.25;5011322;28;20065;-82
2023/11/29 00:56:14;;;;;;;16.63;10.25;;;1.80;99.90;;;1.69;72.06;99321.56;4975557;28;20145;-83
2023/11/29 00:58:42;;;;;;;17.23;9.32;;;1.80;99.90;;;1.67;71.45;99320.94;4975199;28;20069;-82
2023/11/29 01:01:11;;;;;;;17.52;10.23;;;2.00;99.90;;;1.72;72.13;99321.22;4999678;28;20497;-83
2023/11/29 01:03:39;;;;;;;18.92;9.30;;;1.80;99.90;;;1.71;72.10;99316.16;5027288;28;20100;-83
2023/11/29 01:06:07;;;;;;;16.90;9.02;;;2.00;99.90;;;1.74;71.63;99318.38;4961846;28;20085;-83
2023/11/29 01:08:35;;;;;;;18.55;9.45;;;1.90;99.90;;;1.67;71.29;99320.13;4994347;28;20050;-82
2023/11/29 01:11:03;;;;;;;18.30;9.65;;;1.80;99.90;;;1.64;71.80;99313.41;4978123;28;20049;-83
2023/11/29 01:13:30;;;;;;;18.05;9.57;;;1.80;99.90;;;1.80;72.14;99315.03;4994596;28;20052;-82
2023/11/29 01:15:58;;;;;;;16.05;8.95;;;1.90;99.90;;;1.77;72.08;99310.16;5010385;28;20077;-82
2023/11/29 01:18:27;;;;;;;16.77;9.07;;;1.90;99.90;;;1.78;71.69;99312.59;5010321;28;20046;-83
2023/11/29 01:20:55;;;;;;;18.45;9.80;;;1.90;99.90;;;1.83;70.93;99306.78;5011305;28;20081;-83
2023/11/29 01:23:23;;;;;;;16.20;9.13;;;1.90;99.90;;;1.67;70.85;99304.38;5011277;28;20053;-83
2023/11/29 01:25:50;;;;;;;18.05;9.32;;;1.90;99.90;;;1.80;71.52;99309.75;5011460;28;20052;-82
2023/11/29 01:28:18;;;;;;;18.45;8.95;;;1.90;99.90;;;1.62;71.18;99304.09;5012425;28;20050;-82
2023/11/29 01:30:46;;;;;;;17.30;8.73;;;1.90;99.90;;;1.74;71.44;99311.31;5012881;28;20057;-83
2023/11/29 01:33:14;;;;;;;18.00;8.48;;;1.90;99.90;;;1.76;71.50;99314.59;5028465;28;20545;-83
2023/11/29 01:35:44;;;;;;;15.60;8.32;;;1.90;99.90;;;1.82;71.37;99309.59;5012371;28;20042;-82
2023/11/29 01:38:11;;;;;;;16.83;9.85;;;1.90;99.90;;;1.90;71.09;99309.47;5011978;28;20046;-83
2023/11/29 01:40:39;;;;;;;15.05;8.75;;;2.00;99.90;;;1.76;71.12;99313.78;4995878;28;20042;-82
2023/11/29 01:43:09;;;;;;;15.68;8.23;;;1.90;99.90;;;1.70;71.06;99310.06;4996768;28;20053;-82
2023/11/29 01:45:36;;;;;;;16.00;8.93;;;1.90;99.90;;;1.69;71.33;99302.34;4980130;28;20092;-83
2023/11/29 01:48:04;;;;;;;15.80;8.85;;;1.90;99.90;;;1.80;71.10;99301.88;5012790;28;20088;-83
2023/11/29 01:50:38;;;;;;;15.48;8.75;;;1.90;99.90;;;1.79;70.89;99287.94;5012485;28;20050;-83
2023/11/29 01:53:07;;;;;;;18.70;9.00;;;1.90;99.90;;;1.82;70.82;99296.47;5012451;28;20042;-82
2023/11/29 01:55:36;;;;;;;14.90;8.65;;;1.90;99.90;;;1.76;71.09;99284.88;5029700;28;20045;-83
2023/11/29 01:58:04;;;;;;;18.55;9.55;;;1.90;99.90;;;1.72;71.22;99287.03;4986599;28;20129;-83
2023/11/29 02:00:32;;;;;;;15.98;9.00;;;1.90;99.90;;;1.75;71.32;99286.66;4989564;28;20046;-83
2023/11/29 02:03:01;;;;;;;14.98;8.15;;;1.80;99.90;;;1.79;71.33;99277.41;4998235;28;20050;-82
2023/11/29 02:05:29;;;;;;;16.80;8.75;;;1.80;99.90;;;1.72;71.18;99270.47;5004912;28;20073;-83
2023/11/29 02:07:58;;;;;;;16.80;9.30;;;1.80;99.90;;;1.70;71.32;99277.69;4990286;28;20046;-82
2023/11/29 02:10:28;;;;;;;16.83;9.00;;;1.80;99.90;;;1.62;71.74;99270.75;5008242;28;20046;-82
2023/11/29 02:12:58;;;;;;;15.10;9.13;;;1.80;99.90;;;1.72;72.13;99265.22;5007692;28;20050;-83
2023/11/29 02:15:25;;;;;;;15.57;8.90;;;1.80;99.90;;;1.71;71.55;99269.66;5007691;28;20046;-82
2023/11/29 02:17:53;;;;;;;14.20;8.80;;;1.80;99.90;;;1.74;71.80;99261.38;4989177;28;20141;-82
2023/11/29 02:20:21;;;;;;;15.02;8.80;;;1.80;99.90;;;1.72;71.99;99262.59;4985596;28;20453;-82
2023/11/29 02:23:00;;;;;;;14.43;8.32;;;1.80;99.90;;;1.78;71.78;99265.28;5015022;28;20416;-83
2023/11/29 02:25:29;;;;;;;14.40;8.85;;;1.80;99.90;;;1.71;72.08;99263.59;4994674;28;20046;-83
2023/11/29 02:27:59;;;;;;;17.75;9.00;;;1.80;99.90;;;1.71;71.93;99264.41;5019211;28;20066;-82
2023/11/29 02:30:26;;;;;;;14.27;8.25;;;1.80;99.90;;;1.84;72.38;99263.72;4985074;28;20049;-82
2023/11/29 02:32:54;;;;;;;15.90;8.90;;;1.90;99.90;;;1.94;72.47;99252.91;5001228;28;20042;-82
2023/11/29 02:35:21;;;;;;;17.02;9.52;;;1.90;99.90;;;2.02;72.07;99248.38;4951830;28;20057;-82
2023/11/29 02:37:49;;;;;;;18.45;9.68;;;2.00;99.90;;;1.90;72.47;99244.56;4984987;28;20049;-82
2023/11/29 02:40:17;;;;;;;15.52;9.10;;;1.90;99.90;;;1.98;72.24;99248.91;4985138;28;20045;-82
2023/11/29 02:42:45;;;;;;;16.88;9.23;;;2.00;99.90;;;2.05;72.41;99257.72;4985331;28;20502;-82
2023/11/29 02:45:15;;;;;;;19.55;9.30;;;2.00;99.90;;;2.11;72.24;99256.16;5001251;28;20046;-82
2023/11/29 02:47:42;;;;;;;16.20;8.93;;;2.10;99.90;;;2.11;72.32;99266.66;4977723;28;20050;-82
2023/11/29 02:50:10;;;;;;;17.02;9.18;;;2.10;99.90;;;2.17;72.35;99250.13;4999344;28;20049;-82
2023/11/29 02:52:40;;;;;;;19.33;9.90;;;2.30;99.90;;;2.14;72.13;99255.75;5000650;28;20041;-82
2023/11/29 02:55:09;;;;;;;16.15;9.13;;;2.10;99.90;;;2.17;72.45;99260.66;5018110;28;20077;-82
2023/11/29 02:57:36;;;;;;;15.85;9.00;;;2.10;99.90;;;2.25;72.52;99269.25;5019581;28;20088;-82
2023/11/29 03:00:09;;;;;;;19.88;10.57;;;2.20;99.90;;;2.30;72.63;99258.16;5004527;28;20080;-82
2023/11/29 03:02:36;;;;;;;17.90;9.30;;;2.20;99.90;;;2.36;72.62;99257.41;5003013;28;20042;-83
2023/11/29 03:05:04;;;;;;;15.25;9.18;;;2.30;99.90;;;2.37;72.89;99258.22;5022125;28;20133;-82
2023/11/29 03:07:32;;;;;;;15.80;9.35;;;2.30;99.90;;;2.41;72.84;99257.66;5003251;28;20049;-83
2023/11/29 03:10:01;;;;;;;20.02;9.38;;;2.40;99.90;;;2.46;72.85;99255.28;5004620;28;20069;-82
2023/11/29 03:12:28;;;;;;;15.88;9.35;;;2.40;99.90;;;2.51;73.19;99250.25;4998545;28;20065;-82
2023/11/29 03:14:56;;;;;;;17.00;10.30;;;2.40;99.90;;;2.53;73.07;99247.41;5021839;28;20469;-82
2023/11/29 03:17:26;;;;;;;17.02;9.48;;;2.60;99.90;;;2.57;73.09;99243.41;4987721;28;20064;-82
2023/11/29 03:19:53;;;;;;;20.42;9.73;;;2.50;99.90;;;2.43;72.83;99234.59;4987454;28;20046;-82
2023/11/29 03:22:21;;;;;;;17.92;10.13;;;2.40;99.90;;;2.39;73.53;99235.16;4987559;28;20117;-82
2023/11/29 03:24:48;;;;;;;17.35;9.90;;;2.30;99.90;;;2.46;73.31;99231.59;5003437;28;20042;-83
2023/11/29 03:27:19;;;;;;;18.00;9.88;;;2.40;99.90;;;2.45;73.84;99224.72;5009560;28;20081;-83
2023/11/29 03:29:46;;;;;;;17.30;9.90;;;2.40;99.90;;;2.48;73.60;99218.22;5010309;28;20460;-83
2023/11/29 03:32:14;;;;;;;17.60;10.00;;;2.40;99.90;;;2.45;73.84;99221.25;4993382;28;20046;-82
2023/11/29 03:34:43;;;;;;;19.70;10.88;;;2.40;99.90;;;2.45;74.29;99222.06;5028741;28;20038;-83
2023/11/29 03:37:11;;;;;;;18.75;10.63;;;2.40;99.90;;;2.45;74.63;99223.91;5028293;28;20041;-82
2023/11/29 03:39:39;;;;;;;22.27;10.65;;;2.30;99.90;;;2.46;75.02;99212.34;5011028;28;20046;-83
2023/11/29 03:42:07;;;;;;;20.38;11.00;;;2.30;99.90;;;2.52;74.99;99215.03;5027729;28;20050;-83
2023/11/29 03:44:36;;;;;;;18.90;11.40;;;2.40;99.90;;;2.53;74.85;99211.41;5027031;28;20430;-83
2023/11/29 03:47:04;;;;;;;19.23;10.15;;;2.40;99.90;;;2.53;74.99;99198.22;5010026;28;20060;-83
2023/11/29 03:49:31;;;;;;;20.50;10.18;;;2.40;99.90;;;2.56;74.96;99181.25;4993635;28;20120;-83
2023/11/29 03:52:00;;;;;;;22.27;11.27;;;2.40;99.90;;;2.33;75.98;99182.28;4992747;28;20509;-83
2023/11/29 03:54:27;;;;;;;22.02;10.95;;;2.40;99.90;;;2.26;76.77;99178.00;4992852;28;20077;-83
2023/11/29 03:56:55;;;;;;;18.65;10.10;;;2.30;99.90;;;2.35;76.81;99176.06;5009310;28;20050;-83
2023/11/29 03:59:22;;;;;;;22.17;11.30;;;2.30;99.90;;;2.29;77.20;99175.81;4993152;28;20141;-83
2023/11/29 04:01:50;;;;;;;21.23;11.52;;;2.20;99.90;;;2.15;77.69;99173.22;5009259;28;20050;-83
2023/11/29 04:04:19;;;;;;;22.27;11.07;;;2.20;99.90;;;2.13;78.34;99165.53;5010085;28;20056;-83
2023/11/29 04:06:48;;;;;;;21.30;12.20;;;2.10;99.90;;;2.21;78.18;99149.63;5010084;28;20103;-83
2023/11/29 04:09:17;;;;;;;19.80;11.57;;;2.10;99.90;;;2.17;78.20;99148.38;4990880;28;20054;-84
2023/11/29 04:11:47;;;;;;;22.42;12.27;;;2.10;99.90;;;2.00;78.87;99129.44;4990095;28;20060;-84
2023/11/29 04:14:14;;;;;;;23.67;11.95;;;2.00;99.90;;;1.80;80.15;99126.59;5007984;28;20398;-84
2023/11/29 04:16:42;;;;;;;20.23;11.60;;;1.90;99.90;;;1.89;79.91;99134.38;5009344;28;20096;-84
2023/11/29 04:19:10;;;;;;;19.92;11.57;;;1.90;99.90;;;1.85;80.35;99133.91;5026715;28;20042;-83
2023/11/29 04:21:37;;;;;;;20.17;11.15;;;1.90;99.90;;;1.90;80.53;99131.53;5009118;28;20057;-83
2023/11/29 04:24:06;;;;;;;17.80;10.00;;;1.90;99.90;;;2.05;80.34;99121.78;4992448;28;20108;-83
2023/11/29 04:26:36;;;;;;;19.88;11.07;;;2.00;99.90;;;2.14;79.80;99116.38;4985092;28;20046;-83
2023/11/29 04:29:06;;;;;;;20.45;10.98;;;2.10;99.90;;;1.99;79.99;99119.09;4982528;28;20042;-83
2023/11/29 04:31:35;;;;;;;20.70;10.98;;;2.10;99.90;;;2.02;80.03;99110.81;4990042;28;20042;-83
2023/11/29 04:34:03;;;;;;;22.27;11.30;;;2.00;99.90;;;2.08;79.97;99090.84;5001636;28;20069;-83
2023/11/29 04:36:31;;;;;;;22.63;11.30;;;2.10;99.90;;;1.97;80.38;99090.38;5001122;28;20041;-83
2023/11/29 04:38:58;;;;;;;22.40;12.13;;;2.00;99.90;;;2.04;80.70;99085.16;4997517;28;20042;-83
2023/11/29 04:41:26;;;;;;;22.13;11.70;;;2.20;99.90;;;2.02;80.27;99080.09;4965906;28;20062;-83
2023/11/29 04:43:55;;;;;;;20.98;11.60;;;2.10;99.90;;;1.92;80.93;99076.97;4982040;28;20049;-83
2023/11/29 04:46:23;;;;;;;23.73;12.18;;;2.00;99.90;;;1.90;80.99;99083.41;4999492;28;20166;-83
2023/11/29 04:48:50;;;;;;;22.80;12.55;;;2.00;99.90;;;1.82;81.75;99100.13;4983970;28;20052;-83
2023/11/29 04:51:18;;;;;;;25.33;11.38;;;1.90;99.90;;;1.90;81.58;99083.41;5000949;28;20437;-83
2023/11/29 04:53:46;;;;;;;21.88;11.65;;;2.00;99.90;;;2.02;81.43;99081.91;4984733;28;20081;-83
2023/11/29 04:56:13;;;;;;;19.70;11.32;;;2.10;99.90;;;2.14;81.01;99079.56;5001506;28;20038;-83
2023/11/29 04:58:40;;;;;;;20.80;11.40;;;2.10;99.90;;;2.18;80.84;99081.63;5017144;28;20513;-83
2023/11/29 05:01:11;;;;;;;19.75;11.82;;;2.20;99.90;;;2.18;80.52;99067.66;5019025;28;20501;-82
2023/11/29 05:03:39;;;;;;;19.33;11.23;;;2.20;99.90;;;2.11;81.02;99069.44;5000453;28;20050;-83
2023/11/29 05:06:09;;;;;;;19.45;11.20;;;2.20;99.90;;;1.98;81.48;99054.38;5018234;28;20045;-83
2023/11/29 05:08:37;;;;;;;23.27;11.98;;;2.10;99.90;;;1.70;82.69;99047.25;5000906;28;20050;-83
2023/11/29 05:11:06;;;;;;;20.88;11.88;;;2.00;99.90;;;1.89;82.67;99055.50;5019370;28;20045;-83
2023/11/29 05:13:35;;;;;;;21.77;12.07;;;2.00;99.90;;;2.04;82.56;99053.59;5000776;28;20046;-83
2023/11/29 05:16:02;;;;;;;23.38;12.38;;;2.10;99.90;;;2.04;81.65;99059.66;5018483;28;20061;-83
2023/11/29 05:18:31;;;;;;;19.02;11.60;;;2.10;99.90;;;1.91;82.34;99051.69;4999604;28;20533;-82
2023/11/29 05:20:58;;;;;;;21.98;12.02;;;2.00;99.90;;;1.98;82.22;99052.53;5016382;28;20057;-83
2023/11/29 05:23:29;;;;;;;20.58;11.90;;;2.00;99.90;;;2.00;81.99;99029.53;4983479;28;20057;-82
2023/11/29 05:25:56;;;;;;;19.57;11.40;;;2.10;99.90;;;2.00;81.95;99032.16;5000543;28;20468;-82
2023/11/29 05:28:27;;;;;;;20.98;11.40;;;2.10;99.90;;;2.01;82.24;99048.75;5000180;28;20073;-85
2023/11/29 05:30:55;;;;;;;21.55;11.90;;;2.10;99.90;;;2.02;82.20;99022.25;4999860;28;20041;-83
2023/11/29 05:33:25;;;;;;;21.67;11.57;;;2.10;99.90;;;1.99;82.79;99038.41;4984471;28;20034;-82
2023/11/29 05:35:54;;;;;;;20.73;12.02;;;2.10;99.90;;;2.06;82.61;99030.56;4988824;28;20050;-85
2023/11/29 05:38:24;;;;;;;21.60;11.65;;;2.10;99.90;;;2.12;82.15;99042.13;4997023;28;20101;-86
2023/11/29 05:40:52;;;;;;;25.33;12.63;;;2.20;99.90;;;2.15;82.05;99024.16;4980047;28;20054;-85
2023/11/29 05:43:19;;;;;;;24.98;12.90;;;2.20;99.90;;;2.13;82.29;99022.72;4979253;28;20458;-85
2023/11/29 05:45:47;;;;;;;23.85;12.77;;;2.20;99.90;;;1.95;83.19;99029.28;5004522;28;20489;-85
2023/11/29 05:48:15;;;;;;;21.17;12.60;;;2.10;99.90;;;1.94;83.17;99025.00;5015191;28;20038;-85
2023/11/29 05:50:43;;;;;;;26.10;13.10;;;2.10;99.90;;;2.06;83.20;99020.06;4989618;28;20077;-86
2023/11/29 05:53:14;;;;;;;26.05;13.25;;;2.20;99.90;;;1.92;83.71;99024.41;5004558;28;20050;-86
2023/11/29 05:55:42;;;;;;;27.98;14.18;;;2.10;99.90;;;2.00;83.87;99012.91;5005571;28;20124;-84
2023/11/29 05:58:09;;;;;;;28.42;14.38;;;2.10;99.90;;;2.03;83.37;99015.97;5022197;28;20100;-84
2023/11/29 06:00:37;;;;;;;24.83;13.60;;;2.10;99.90;;;2.09;83.37;99018.84;5021307;28;20528;-84
2023/11/29 06:03:04;;;;;;;30.40;15.20;;;2.20;99.90;;;2.08;83.17;99006.72;5020872;28;20042;-84
2023/11/29 06:05:33;;;;;;;28.08;14.68;;;2.20;99.90;;;1.96;83.70;99003.81;5019876;28;20034;-84
2023/11/29 06:08:00;;;;;;;26.48;13.55;;;2.10;99.90;;;1.91;84.30;98999.13;5002636;28;20042;-84
2023/11/29 06:10:29;;;;;;;21.52;12.98;;;2.10;99.90;;;2.01;83.75;98993.53;5019777;28;20054;-84
2023/11/29 06:12:57;;;;;;;30.85;13.73;;;2.10;99.90;;;2.05;83.97;99008.72;4999351;28;20096;-86
2023/11/29 06:15:25;;;;;;;25.48;13.52;;;2.40;99.90;;;2.10;83.90;98994.16;4999316;28;20049;-86
2023/11/29 06:17:53;;;;;;;26.45;14.15;;;2.20;99.90;;;2.09;83.40;98989.91;5009468;28;20042;-86
2023/11/29 06:20:21;;;;;;;25.75;13.15;;;2.20;99.90;;;2.10;83.45;98991.53;5010311;28;20061;-86
2023/11/29 06:22:49;;;;;;;27.15;13.38;;;2.20;99.90;;;2.19;83.48;98991.19;4996043;28;20061;-87
2023/11/29 06:25:17;;;;;;;28.88;14.18;;;2.20;99.90;;;2.17;83.33;98990.59;5013629;28;20042;-87
2023/11/29 06:27:48;;;;;;;26.73;14.23;;;2.30;99.90;;;2.17;83.37;98995.03;4994368;28;20084;-87
2023/11/29 06:30:17;;;;;;;26.73;14.63;;;2.30;99.90;;;2.13;84.06;98986.72;4980655;28;20563;-88
2023/11/29 06:32:44;;;;;;;28.10;14.13;;;2.30;99.90;;;2.22;83.79;99001.34;5020048;28;20109;-85
2023/11/29 06:35:12;;;;;;;26.98;13.70;;;2.30;99.90;;;2.26;83.49;98993.88;5024900;28;20072;-84
2023/11/29 06:37:40;;;;;;;31.95;14.90;;;2.30;99.90;;;2.26;83.32;98994.69;5009687;28;20053;-83
2023/11/29 06:40:11;;;;;;;25.38;14.50;;;2.30;99.90;;;2.28;83.73;98999.75;4999488;28;20038;-84
2023/11/29 06:42:40;;;;;;;;;;;2.40;99.90;;;2.36;83.08;99002.22;4992096;28;20046;-84
2023/11/29 06:45:10;;;;;;;28.60;13.73;;;2.40;99.90;;;2.33;83.44;99006.03;5008635;28;19922;-84
2023/11/29 06:47:38;;;;;;;28.13;15.18;;;2.40;99.90;;;2.34;83.33;99001.59;4997313;28;20045;-84
2023/11/29 06:50:10;;;;;;;24.85;13.15;;;2.40;99.90;;;2.32;83.54;99001.78;4993484;28;20045;-84
2023/11/29 06:52:38;;;;;;;;;;;2.40;99.90;;;2.36;83.28;99004.84;5026262;28;20145;-84
2023/11/29 06:55:06;;;;;;;29.60;14.40;;;2.40;99.90;;;2.25;83.92;99005.41;5026081;28;19925;-84
2023/11/29 06:57:34;;;;;;;24.98;13.65;;;2.40;99.90;;;2.25;83.92;99010.66;5020706;28;20057;-84
2023/11/29 07:00:04;;;;;;;26.73;14.45;;;2.40;99.90;;;2.33;83.85;99024.47;5026412;28;20038;-84
2023/11/29 07:02:33;;;;;;;24.23;13.65;;;2.40;99.90;;;2.42;84.00;99009.34;5009642;28;20054;-84
2023/11/29 07:05:00;;;;;;;25.63;13.63;;;2.50;99.90;;;2.45;83.91;99008.97;5009066;28;20038;-84
2023/11/29 07:07:28;;;;;;;25.80;14.02;;;2.50;99.90;;;2.49;83.44;99006.72;5027464;28;20105;-84
2023/11/29 07:09:56;;;;;;;23.58;13.57;;;2.50;99.90;;;2.52;83.35;99008.97;5008273;28;20104;-84
2023/11/29 07:12:24;;;;;;;26.05;13.70;;;2.50;99.90;;;2.40;83.48;99000.03;4991439;28;20037;-84
2023/11/29 07:14:53;;;;;;;27.65;13.23;;;2.50;99.90;;;2.47;83.48;99006.13;4998535;28;20053;-84
2023/11/29 07:17:21;;;;;;;25.73;13.20;;;2.50;99.90;;;2.48;83.63;99011.19;4953878;28;20038;-84
2023/11/29 07:19:50;;;;;;;25.33;13.23;;;2.50;99.90;;;2.53;83.53;99007.97;4986637;28;20104;-84
2023/11/29 07:22:17;;;;;;;20.70;12.38;;;2.60;99.90;;;2.54;83.33;99013.06;4987923;28;20050;-84
2023/11/29 07:24:47;;;;;;;26.02;13.93;;;2.60;99.90;;;2.56;83.38;99016.28;4988349;28;20073;-84
2023/11/29 07:27:14;;;;;;;22.83;13.32;;;2.60;99.90;;;2.63;83.57;99003.16;4969606;28;20038;-84
2023/11/29 07:29:42;;;;;;;22.38;13.50;;;2.60;99.90;;;2.69;83.11;99012.09;4966627;28;20054;-84
2023/11/29 07:32:10;;;;;;;25.75;12.90;;;2.70;99.90;;;2.74;83.22;99013.13;5005604;28;20054;-84
2023/11/29 07:34:37;;;;;;;24.48;13.05;;;2.70;99.90;;;2.75;82.66;99014.75;4987741;28;20532;-84
2023/11/29 07:37:08;;;;;;;26.02;12.90;;;2.80;99.90;;;2.74;82.85;99018.41;4973740;28;20050;-84
2023/11/29 07:39:35;;;;;;;24.33;13.68;;;2.70;99.90;;;2.75;82.94;99014.75;4953544;28;20087;-84
2023/11/29 07:42:03;;;;;;;23.52;13.70;;;2.80;99.90;;;2.76;82.85;99021.63;4971832;28;20050;-84
2023/11/29 07:44:31;;;;;;;25.83;13.73;;;2.80;99.90;;;2.65;83.09;99010.88;5000832;28;20038;-84
2023/11/29 07:46:59;;;;;;;25.45;13.75;;;2.70;99.90;;;2.66;83.79;99015.13;4975998;28;20401;-83
2023/11/29 07:49:26;;;;;;;24.48;13.52;;;2.70;99.90;;;2.75;83.40;99013.94;5007293;28;20050;-83
2023/11/29 07:51:54;;;;;;;25.85;13.73;;;2.70;99.90;;;2.77;83.28;99014.53;5003054;28;20038;-84
2023/11/29 07:54:24;;;;;;;24.77;12.52;;;2.80;99.90;;;2.75;83.28;99017.38;5019833;28;20524;-85
2023/11/29 07:56:52;;;;;;;21.90;13.00;;;2.80;99.90;;;2.75;83.35;99013.94;4986336;28;20045;-83
2023/11/29 07:59:20;;;;;;;21.88;12.68;;;2.80;99.90;;;2.74;83.76;99017.59;5008161;28;20517;-83
2023/11/29 08:01:47;;;;;;;22.55;12.25;;;2.80;99.90;;;2.75;83.64;99024.47;5027219;28;20116;-83
2023/11/29 08:04:15;;;;;;;19.15;11.77;;;2.80;99.90;;;2.76;83.47;99015.56;4993429;28;20050;-83
2023/11/29 08:06:43;;;;;;;19.85;11.48;;;2.80;99.90;;;2.81;83.44;99029.75;5010225;28;20050;-83
2023/11/29 08:09:12;;;;;;;21.30;10.95;;;2.80;99.90;;;2.71;83.80;99026.69;5010116;28;20094;-83
2023/11/29 08:11:40;;;;;;;24.20;12.25;;;2.80;99.90;;;2.74;84.06;99028.13;5009263;28;20049;-83
2023/11/29 08:14:08;;;;;;;23.73;12.02;;;2.70;99.90;;;2.78;84.26;99030.16;5026530;28;20073;-83
2023/11/29 08:16:35;;;;;;;21.50;11.20;;;2.80;99.90;;;2.76;84.12;99026.09;4992133;28;20052;-83
2023/11/29 08:19:04;;;;;;;19.40;11.02;;;2.80;99.90;;;2.80;83.81;99038.66;5009646;28;20042;-83
2023/11/29 08:21:32;;;;;;;22.05;11.60;;;3.00;99.90;;;2.76;84.23;99047.16;5010020;28;20053;-83
2023/11/29 08:24:00;;;;;;;18.73;11.05;;;2.80;99.90;;;2.78;83.82;99035.44;5027181;28;20046;-83
2023/11/29 08:26:28;;;;;;;26.25;11.60;;;2.80;99.90;;;2.77;83.85;99044.31;5027544;28;20092;-83
2023/11/29 08:28:58;;;;;;;20.30;11.23;;;2.80;99.90;;;2.78;84.01;99045.13;4991292;28;20432;-83
2023/11/29 08:31:27;;;;;;;20.83;12.00;;;2.70;99.90;;;2.77;83.99;99048.78;4975576;28;20118;-83
2023/11/29 08:33:57;;;;;;;21.45;11.55;;;2.80;99.90;;;2.72;84.20;99057.25;5001984;28;20046;-83
2023/11/29 08:36:26;;;;;;;17.70;11.32;;;2.80;99.90;;;2.79;84.37;99046.78;4985160;28;20097;-83
2023/11/29 08:38:54;;;;;;;19.02;11.32;;;2.80;99.90;;;2.82;84.11;99054.25;5014651;28;20046;-88
2023/11/29 08:41:22;;;;;;;23.60;12.70;;;2.80;99.90;;;2.80;84.27;99053.66;4993320;28;20053;-83
2023/11/29 08:43:50;;;;;;;22.05;11.98;;;2.80;99.90;;;2.84;83.90;99055.69;4993900;28;20108;-83
2023/11/29 08:46:19;;;;;;;19.27;12.00;;;2.80;99.90;;;2.82;83.87;99057.69;4994578;28;20045;-83
2023/11/29 08:48:50;;;;;;;19.63;12.57;;;2.90;99.90;;;2.88;84.26;99063.19;4993296;28;20070;-83
2023/11/29 08:51:18;;;;;;;19.92;13.00;;;2.90;99.90;;;2.95;84.12;99064.03;5027356;28;20049;-83
2023/11/29 08:53:46;;;;;;;19.40;13.02;;;3.00;99.90;;;2.96;84.28;99061.19;5026591;28;20042;-83
2023/11/29 08:56:17;;;;;;;24.38;13.90;;;3.00;99.90;;;2.95;84.27;99062.22;4993236;28;20064;-83
2023/11/29 08:58:48;;;;;;;21.15;13.20;;;3.00;99.90;;;2.95;84.19;99069.31;5009562;28;20046;-83
2023/11/29 09:01:20;;;;;;;21.52;13.13;;;3.00;99.90;;;2.98;84.35;99061.84;5028207;28;20045;-83
2023/11/29 09:03:48;;;;;;;21.10;13.13;;;3.00;99.90;;;3.06;84.17;99064.28;5011243;28;20050;-83
2023/11/29 09:06:17;;;;;;;19.25;12.57;;;3.00;99.90;;;3.10;83.61;99076.06;5028027;28;20042;-83
2023/11/29 09:08:47;;;;;;;18.75;12.20;;;3.30;99.90;;;3.08;83.58;99072.00;5027436;28;20117;-83
2023/11/29 09:11:15;;;;;;;20.15;12.02;;;3.00;99.90;;;3.01;83.41;99073.78;5027833;28;20060;-83
2023/11/29 09:13:44;;;;;;;20.67;11.43;;;3.00;99.90;;;3.00;84.00;99075.59;5009763;28;20061;-83
2023/11/29 09:16:12;;;;;;;15.23;11.10;;;3.00;99.90;;;3.00;83.71;99085.34;5008943;28;20042;-83
2023/11/29 09:18:41;;;;;;;18.10;11.60;;;3.00;99.90;;;3.07;83.95;99086.16;5009870;28;20061;-83
2023/11/29 09:21:09;;;;;;;16.35;10.85;;;3.00;99.90;;;3.13;84.26;99085.41;5009528;28;20053;-83
2023/11/29 09:23:38;;;;;;;15.95;10.63;;;3.10;99.90;;;3.13;83.86;99074.84;5027833;28;20129;-83
2023/11/29 09:26:06;;;;;;;20.48;11.60;;;3.10;99.90;;;3.05;83.73;99080.28;4990358;28;20053;-83
2023/11/29 09:28:36;;;;;;;16.23;11.35;;;3.10;99.90;;;2.99;84.26;99095.06;5009179;28;20037;-83
2023/11/29 09:31:05;;;;;;;17.17;10.45;;;3.10;99.90;;;3.01;84.36;99111.47;5009029;28;20046;-83
2023/11/29 09:33:33;;;;;;;16.13;11.35;;;3.10;99.90;;;3.07;84.51;99113.34;4975821;28;20096;-83
2023/11/29 09:36:03;;;;;;;19.38;11.18;;;3.10;99.90;;;3.07;84.53;99100.16;5008592;28;20505;-83
2023/11/29 09:38:31;;;;;;;20.07;11.10;;;3.10;99.90;;;3.00;84.15;99107.22;5026955;28;20589;-83
2023/11/29 09:40:59;;;;;;;22.40;11.77;;;3.30;99.90;;;3.01;84.28;99102.75;4997272;28;20282;-83
2023/11/29 09:43:27;;;;;;;17.25;11.15;;;3.10;99.90;;;2.98;84.97;99114.50;4981032;28;20038;-83
2023/11/29 09:45:55;;;;;;;20.17;11.98;;;3.00;99.90;;;3.05;84.74;99115.34;4992508;28;20041;-83
2023/11/29 09:48:23;;;;;;;17.77;11.65;;;3.10;99.90;;;2.98;84.84;99125.03;5022625;28;20051;-83
2023/11/29 09:50:51;;;;;;;19.48;10.80;;;3.10;99.90;;;3.02;85.09;99125.44;4991845;28;20121;-83
2023/11/29 09:53:19;;;;;;;19.92;12.00;;;3.10;99.90;;;3.07;84.89;99129.13;5025340;28;20042;-83
2023/11/29 09:55:48;;;;;;;19.23;12.18;;;3.10;99.90;;;3.00;84.49;99136.19;5006410;28;20042;-83
2023/11/29 09:58:16;;;;;;;18.45;12.48;;;3.10;99.90;;;3.10;84.78;99136.63;5007231;28;20046;-83
2023/11/29 10:00:44;;;;;;;20.52;11.50;;;3.30;99.90;;;3.04;84.36;99142.69;5023744;28;20038;-83
2023/11/29 10:03:16;;;;;;;22.25;12.60;;;3.20;99.90;;;3.00;84.54;99143.25;5006140;28;20054;-87
2023/11/29 10:05:54;;;;;;;18.77;11.60;;;3.10;99.90;;;2.96;85.57;99137.56;5003819;28;20575;-85
2023/11/29 10:08:25;;;;;;;18.38;11.48;;;3.10;99.90;;;3.10;85.36;99146.34;4989673;28;20089;-84
2023/11/29 10:10:52;;;;;;;20.73;11.95;;;3.10;99.90;;;3.11;85.11;99142.72;5006062;28;20046;-86
2023/11/29 10:13:21;;;;;;;20.08;11.40;;;3.20;99.90;;;3.06;85.31;99140.66;5006628;28;20605;-85
2023/11/29 10:15:51;;;;;;;18.90;10.70;;;3.20;99.90;;;3.08;85.15;99153.66;5004314;28;20129;-85
2023/11/29 10:18:21;;;;;;;19.48;10.85;;;3.20;99.90;;;3.14;85.10;99149.41;5004656;28;20108;-85
2023/11/29 10:20:51;;;;;;;16.42;11.15;;;3.20;99.90;;;3.16;84.96;99147.38;5017275;28;20121;-86
2023/11/29 10:23:19;;;;;;;18.60;11.40;;;3.30;99.90;;;3.18;85.55;99135.66;4971014;28;20046;-85
2023/11/29 10:25:47;;;;;;;15.48;10.50;;;3.30;99.90;;;3.28;85.51;99137.94;5003196;28;20141;-85